Time;durP1;ratioP1;P1;durP2;ratioP2;P2;SDS_P1;SDS_P2;PMS_P1;PMS_P2;Temp;Humidity;BMP_temperature;BMP_pressure;BME280_temperature;BME280_humidity;BME280_pressure;Samples;Min_cycle;Max_cycle;Signal;HPM_P1;HPM_P2
2021/08/21 00:00:44;;;;;;;15.02;6.93;;;13.80;99.90;;;;;;5044900;28;20032;-60
2021/08/21 00:03:11;;;;;;;18.98;7.18;;;;;;;;;;5045655;28;20064;-61
2021/08/21 00:05:37;;;;;;;16.23;8.15;;;13.60;99.90;;;;;;5044988;28;20025;-60
2021/08/21 00:08:04;;;;;;;19.15;7.88;;;13.70;99.90;;;;;;5045758;28;20448;-60
2021/08/21 00:10:34;;;;;;;19.73;9.07;;;13.70;99.90;;;;;;5045643;28;20029;-60
2021/08/21 00:13:00;;;;;;;20.35;8.85;;;13.80;99.90;;;;;;5045834;28;20033;-60
2021/08/21 00:15:26;;;;;;;20.83;8.82;;;14.10;99.90;;;;;;5044820;28;20039;-60
2021/08/21 00:17:52;;;;;;;19.45;9.55;;;14.70;99.90;;;;;;5045282;28;20143;-60
2021/08/21 00:20:18;;;;;;;21.27;9.07;;;14.70;99.90;;;;;;5045396;28;20029;-60
2021/08/21 00:22:44;;;;;;;19.13;9.25;;;14.80;99.90;;;;;;5045644;28;20104;-60
2021/08/21 00:25:10;;;;;;;19.05;8.25;;;15.00;99.90;;;;;;5045888;28;20487;-60
2021/08/21 00:27:36;;;;;;;19.42;8.20;;;15.30;99.90;;;;;;5045807;28;20496;-60
2021/08/21 00:30:03;;;;;;;18.60;8.38;;;15.30;99.90;;;;;;5041046;28;20061;-60
2021/08/21 00:32:28;;;;;;;15.70;7.97;;;15.30;99.90;;;;;;5035415;28;20051;-60
2021/08/21 00:34:54;;;;;;;16.45;8.05;;;15.30;99.90;;;;;;5050443;28;20409;-59
2021/08/21 00:37:20;;;;;;;16.50;7.97;;;15.30;99.90;;;;;;5049376;28;20104;-60
2021/08/21 00:39:45;;;;;;;18.40;8.07;;;15.20;99.90;;;;;;5046245;28;20118;-60
2021/08/21 00:42:11;;;;;;;16.80;7.13;;;15.20;99.90;;;;;;5048707;28;20044;-60
2021/08/21 00:44:38;;;;;;;19.65;8.23;;;15.10;99.90;;;;;;5045458;28;20509;-60
2021/08/21 00:47:11;;;;;;;17.98;8.88;;;14.90;99.90;;;;;;5052752;28;20025;-59
2021/08/21 00:49:38;;;;;;;17.63;8.80;;;15.10;99.90;;;;;;5046067;28;20075;-60
2021/08/21 00:52:06;;;;;;;18.50;8.13;;;15.00;99.90;;;;;;5046016;28;20025;-60
2021/08/21 00:54:32;;;;;;;15.75;8.02;;;14.80;99.90;;;;;;5045672;28;20060;-60
2021/08/21 00:57:01;;;;;;;15.93;8.20;;;14.50;99.90;;;;;;5044901;28;20028;-60
2021/08/21 00:59:35;;;;;;;20.85;7.95;;;14.30;99.90;;;;;;5043998;28;20669;-60
2021/08/21 01:02:02;;;;;;;15.02;7.35;;;14.00;99.90;;;;;;5041344;28;20029;-60
2021/08/21 01:04:31;;;;;;;14.20;7.20;;;13.80;99.90;;;;;;5053497;28;20020;-60
2021/08/21 01:06:58;;;;;;;17.63;8.50;;;13.70;99.90;;;;;;5050357;28;20036;-60
2021/08/21 01:09:24;;;;;;;20.33;8.18;;;13.50;99.90;;;;;;5048430;28;20025;-60
2021/08/21 01:11:50;;;;;;;16.13;7.72;;;13.40;99.90;;;;;;5051624;28;20028;-60
2021/08/21 01:14:15;;;;;;;19.08;8.57;;;13.30;99.90;;;;;;5050020;28;20032;-60
2021/08/21 01:16:41;;;;;;;18.05;8.32;;;13.30;99.90;;;;;;5049648;28;20037;-60
2021/08/21 01:19:07;;;;;;;19.83;9.15;;;13.20;99.90;;;;;;5051823;28;20029;-61
2021/08/21 01:21:33;;;;;;;20.17;8.55;;;;;;;;;;5048731;28;20103;-60
2021/08/21 01:23:59;;;;;;;22.00;9.15;;;13.10;99.90;;;;;;5050121;28;20773;-60
2021/08/21 01:26:24;;;;;;;18.88;8.80;;;13.10;99.90;;;;;;5049347;28;20086;-60
2021/08/21 01:28:50;;;;;;;21.33;9.05;;;13.00;99.90;;;;;;5049814;28;20021;-60
2021/08/21 01:31:16;;;;;;;19.60;9.57;;;13.00;99.90;;;;;;5050131;28;20036;-60
2021/08/21 01:33:42;;;;;;;23.08;10.88;;;13.00;99.90;;;;;;5054970;28;20033;-60
2021/08/21 01:36:08;;;;;;;22.73;10.65;;;13.00;99.90;;;;;;5051012;28;20021;-60
2021/08/21 01:38:34;;;;;;;27.73;11.85;;;12.90;99.90;;;;;;5051702;28;20503;-60
2021/08/21 01:40:59;;;;;;;22.92;10.60;;;12.90;99.90;;;;;;5049108;28;20099;-60
2021/08/21 01:43:25;;;;;;;25.73;10.98;;;12.90;99.90;;;;;;5049621;28;20131;-59
2021/08/21 01:45:51;;;;;;;24.33;11.63;;;12.90;99.90;;;;;;5050213;28;20108;-60
2021/08/21 01:48:17;;;;;;;24.25;10.15;;;12.90;99.90;;;;;;5045371;28;20029;-60
2021/08/21 01:50:44;;;;;;;26.90;11.35;;;12.80;99.90;;;;;;5048860;28;20102;-61
2021/08/21 01:53:15;;;;;;;29.13;10.82;;;12.70;99.90;;;;;;5046232;28;20032;-60
2021/08/21 01:55:42;;;;;;;24.55;12.07;;;12.70;99.90;;;;;;5046675;28;20099;-60
2021/08/21 01:58:07;;;;;;;25.42;12.10;;;12.70;99.90;;;;;;5031255;28;20538;-60
2021/08/21 02:00:34;;;;;;;27.38;11.90;;;12.60;99.90;;;;;;5047732;28;20028;-60
2021/08/21 02:03:00;;;;;;;31.95;11.57;;;12.60;99.90;;;;;;5049451;28;20408;-61
2021/08/21 02:05:26;;;;;;;29.60;11.48;;;12.60;99.90;;;;;;5048901;28;20021;-60
2021/08/21 02:07:51;;;;;;;27.15;11.32;;;12.60;99.90;;;;;;5046389;28;20032;-60
2021/08/21 02:10:18;;;;;;;27.50;11.98;;;12.60;99.90;;;;;;5049381;28;20139;-60
2021/08/21 02:12:44;;;;;;;31.90;11.80;;;12.60;99.90;;;;;;5048755;28;20102;-60
2021/08/21 02:15:13;;;;;;;30.08;11.18;;;12.60;99.90;;;;;;5048746;28;20542;-60
2021/08/21 02:17:39;;;;;;;28.45;11.32;;;12.50;99.90;;;;;;5047145;28;20111;-60
2021/08/21 02:20:11;;;;;;;26.05;10.80;;;12.50;99.90;;;;;;5048138;28;20103;-60
2021/08/21 02:22:38;;;;;;;28.95;11.75;;;12.50;99.90;;;;;;5048571;28;20044;-60
2021/08/21 02:25:04;;;;;;;30.02;11.88;;;12.50;99.90;;;;;;5029427;28;20124;-60
2021/08/21 02:27:36;;;;;;;30.98;12.13;;;12.50;99.90;;;;;;5047366;28;20096;-60
2021/08/21 02:30:03;;;;;;;32.75;12.57;;;12.50;99.90;;;;;;5048563;28;20028;-60
2021/08/21 02:32:29;;;;;;;32.58;12.13;;;12.60;99.90;;;;;;5048731;28;20415;-60
2021/08/21 02:34:54;;;;;;;31.08;12.30;;;12.60;99.90;;;;;;5038731;28;20029;-60
2021/08/21 02:37:20;;;;;;;28.50;12.18;;;12.50;99.90;;;;;;5049041;28;20078;-61
2021/08/21 02:39:45;;;;;;;33.00;12.33;;;12.50;99.90;;;;;;5046563;28;20040;-59
2021/08/21 02:42:11;;;;;;;32.83;13.43;;;12.50;99.90;;;;;;5047868;28;20484;-60
2021/08/21 02:44:37;;;;;;;29.48;12.70;;;12.50;99.90;;;;;;5047966;28;20424;-60
2021/08/21 02:47:04;;;;;;;30.50;13.23;;;12.50;99.90;;;;;;5047362;28;20380;-59
2021/08/21 02:49:29;;;;;;;36.85;13.50;;;12.40;99.90;;;;;;5047478;28;20035;-60
2021/08/21 02:51:55;;;;;;;35.67;14.23;;;12.30;99.90;;;;;;5048031;28;20100;-60
2021/08/21 02:54:21;;;;;;;31.85;13.02;;;12.40;99.90;;;;;;5026180;28;20029;-60
2021/08/21 02:56:46;;;;;;;37.10;14.55;;;12.40;99.90;;;;;;5046546;28;20025;-60
2021/08/21 02:59:12;;;;;;;30.13;12.88;;;12.40;99.90;;;;;;5045692;28;20504;-60
2021/08/21 03:01:37;;;;;;;32.70;13.18;;;12.30;99.90;;;;;;5047331;28;20033;-60
2021/08/21 03:04:03;;;;;;;32.90;12.43;;;12.30;99.90;;;;;;5047983;28;20029;-60
2021/08/21 03:06:29;;;;;;;27.35;12.00;;;12.20;99.90;;;;;;5047760;28;20029;-60
2021/08/21 03:08:54;;;;;;;29.27;12.00;;;12.20;99.90;;;;;;5047603;28;20431;-60
2021/08/21 03:11:20;;;;;;;32.97;13.50;;;12.20;99.90;;;;;;5048554;28;20033;-60
2021/08/21 03:13:45;;;;;;;36.83;13.40;;;12.10;99.90;;;;;;5047492;28;20032;-60
2021/08/21 03:16:11;;;;;;;37.65;14.77;;;12.00;99.90;;;;;;5050116;28;20039;-60
2021/08/21 03:18:37;;;;;;;37.10;14.07;;;12.00;99.90;;;;;;5047776;28;20099;-60
2021/08/21 03:21:02;;;;;;;32.20;12.90;;;12.00;99.90;;;;;;5048200;28;20021;-60
2021/08/21 03:23:28;;;;;;;36.40;14.05;;;12.00;99.90;;;;;;5046697;28;20029;-60
2021/08/21 03:25:54;;;;;;;34.97;14.13;;;12.10;99.90;;;;;;5047524;28;20021;-60
2021/08/21 03:28:19;;;;;;;39.13;15.32;;;12.10;99.90;;;;;;5046809;28;20330;-60
2021/08/21 03:30:45;;;;;;;37.75;15.15;;;12.20;99.90;;;;;;5051368;28;20330;-60
2021/08/21 03:33:10;;;;;;;43.33;15.73;;;12.20;99.90;;;;;;5048263;28;20104;-60
2021/08/21 03:35:36;;;;;;;39.55;14.25;;;12.30;99.90;;;;;;5047166;28;20033;-60
2021/08/21 03:38:02;;;;;;;43.03;13.90;;;;;;;;;;5052023;28;20110;-60
2021/08/21 03:40:28;;;;;;;35.22;14.45;;;12.40;99.90;;;;;;5047075;28;20049;-60
2021/08/21 03:42:54;;;;;;;37.83;13.10;;;12.30;99.90;;;;;;5048374;28;20021;-60
2021/08/21 03:45:19;;;;;;;36.20;14.07;;;12.20;99.90;;;;;;5047279;28;20028;-60
2021/08/21 03:47:47;;;;;;;34.53;13.05;;;12.10;99.90;;;;;;5050408;28;20028;-60
2021/08/21 03:50:13;;;;;;;38.25;14.43;;;12.10;99.90;;;;;;5047243;28;20033;-60
2021/08/21 03:52:38;;;;;;;37.17;14.13;;;12.10;99.90;;;;;;5047064;28;20119;-60
2021/08/21 03:55:05;;;;;;;40.42;15.07;;;12.10;99.90;;;;;;5047223;28;20039;-60
2021/08/21 03:57:30;;;;;;;37.35;14.38;;;12.10;99.90;;;;;;5045630;28;20021;-60
2021/08/21 03:59:56;;;;;;;39.60;14.38;;;12.10;99.90;;;;;;5047304;28;20033;-60
2021/08/21 04:02:21;;;;;;;37.67;14.43;;;12.20;99.90;;;;;;5046642;28;20036;-59
2021/08/21 04:04:47;;;;;;;41.78;15.63;;;12.10;99.90;;;;;;5046982;28;20032;-60
2021/08/21 04:07:17;;;;;;;35.55;14.82;;;12.10;99.90;;;;;;5044019;28;20100;-60
2021/08/21 04:09:43;;;;;;;40.22;15.98;;;12.10;99.90;;;;;;5029133;28;20036;-59
2021/08/21 04:12:08;;;;;;;35.83;14.20;;;12.10;99.90;;;;;;5045688;28;20488;-59
2021/08/21 04:14:34;;;;;;;41.45;13.77;;;12.10;99.90;;;;;;5048118;28;20027;-59
2021/08/21 04:16:59;;;;;;;33.00;14.90;;;12.00;99.90;;;;;;5052401;28;20024;-60
2021/08/21 04:19:25;;;;;;;41.67;15.27;;;12.10;99.90;;;;;;5058822;28;20087;-60
2021/08/21 04:21:51;;;;;;;36.92;14.90;;;12.00;99.90;;;;;;5040727;28;20381;-60
2021/08/21 04:24:16;;;;;;;36.60;14.63;;;11.90;99.90;;;;;;5048587;28;20020;-60
2021/08/21 04:26:42;;;;;;;44.42;15.02;;;12.10;99.90;;;;;;5046429;28;20476;-60
2021/08/21 04:29:10;;;;;;;33.88;14.38;;;12.20;99.90;;;;;;5048578;28;20052;-59
2021/08/21 04:31:36;;;;;;;41.65;14.38;;;12.30;99.90;;;;;;5050013;28;20052;-59
2021/08/21 04:34:02;;;;;;;38.92;15.55;;;12.60;99.90;;;;;;5051285;28;20065;-59
2021/08/21 04:36:27;;;;;;;41.65;15.25;;;12.50;99.90;;;;;;5051935;28;20033;-59
2021/08/21 04:38:54;;;;;;;43.63;15.95;;;12.70;99.90;;;;;;5022977;28;20064;-59
2021/08/21 04:41:19;;;;;;;38.13;15.18;;;12.70;99.90;;;;;;5041475;28;20065;-60
2021/08/21 04:43:45;;;;;;;36.38;14.35;;;12.70;99.90;;;;;;5046029;28;20025;-60
2021/08/21 04:46:11;;;;;;;47.47;15.32;;;12.80;99.90;;;;;;5047152;28;20025;-60
2021/08/21 04:48:37;;;;;;;39.67;15.07;;;12.70;99.90;;;;;;5045865;28;20020;-60
2021/08/21 04:51:02;;;;;;;40.30;14.65;;;12.60;99.90;;;;;;5046461;28;20741;-62
2021/08/21 04:53:28;;;;;;;40.50;15.40;;;12.70;99.90;;;;;;5045472;28;20025;-62
2021/08/21 04:55:53;;;;;;;41.17;15.75;;;12.80;99.90;;;;;;5045931;28;20071;-62
2021/08/21 04:58:19;;;;;;;44.38;15.48;;;12.90;99.90;;;;;;5046229;28;20025;-62
2021/08/21 05:00:44;;;;;;;42.30;15.60;;;13.20;99.90;;;;;;5046196;28;20087;-62
2021/08/21 05:03:10;;;;;;;36.15;14.55;;;13.30;99.90;;;;;;5047601;28;20534;-59
2021/08/21 05:05:37;;;;;;;39.50;14.73;;;13.40;99.90;;;;;;5047764;28;20028;-59
2021/08/21 05:08:02;;;;;;;41.88;15.32;;;13.60;99.90;;;;;;5048624;28;20013;-59
2021/08/21 05:10:28;;;;;;;38.05;15.25;;;13.70;99.90;;;;;;5048814;28;20032;-59
2021/08/21 05:12:54;;;;;;;38.22;16.27;;;13.90;99.90;;;;;;5055297;28;20024;-59
2021/08/21 05:15:20;;;;;;;42.67;15.77;;;14.20;99.90;;;;;;5049878;28;20491;-59
2021/08/21 05:17:48;;;;;;;44.03;17.25;;;14.20;99.90;;;;;;5049076;28;20544;-59
2021/08/21 05:25:10;;;;;;;36.95;15.20;;;14.80;99.90;;;;;;5050120;28;20036;-59
2021/08/21 05:27:36;;;;;;;30.77;14.00;;;14.90;99.90;;;;;;5046561;28;20384;-59
2021/08/21 05:30:04;;;;;;;31.02;12.90;;;15.00;99.90;;;;;;5048937;28;20017;-59
2021/08/21 05:32:33;;;;;;;32.92;13.60;;;15.10;99.90;;;;;;5047419;28;20111;-59
2021/08/21 05:34:59;;;;;;;26.02;12.43;;;15.20;99.90;;;;;;5046027;28;20036;-60
2021/08/21 05:37:24;;;;;;;31.25;13.18;;;15.40;99.90;;;;;;5048589;28;20025;-60
2021/08/21 05:39:50;;;;;;;26.52;12.90;;;15.40;99.90;;;;;;5036714;28;20550;-60
2021/08/21 05:42:16;;;;;;;25.10;12.32;;;15.50;99.90;;;;;;5023484;28;20389;-60
2021/08/21 05:44:42;;;;;;;24.38;12.70;;;15.60;99.90;;;;;;5023212;28;20042;-60
2021/08/21 05:47:07;;;;;;;24.45;11.52;;;15.80;99.90;;;;;;5015576;28;20025;-60
2021/08/21 05:49:33;;;;;;;20.90;11.27;;;15.90;99.90;;;;;;5024535;28;20112;-60
2021/08/21 05:51:59;;;;;;;23.25;11.75;;;15.90;99.90;;;;;;5026051;28;20079;-59
2021/08/21 05:54:24;;;;;;;19.83;10.00;;;16.10;99.90;;;;;;5030705;28;20017;-59
2021/08/21 05:56:50;;;;;;;18.92;9.43;;;16.30;99.90;;;;;;5011233;28;20032;-62
2021/08/21 05:59:15;;;;;;;20.48;9.60;;;16.50;99.90;;;;;;5021727;28;20022;-62
2021/08/21 06:01:41;;;;;;;20.52;8.90;;;16.50;99.90;;;;;;5035394;28;20079;-61
2021/08/21 06:04:07;;;;;;;19.83;8.68;;;16.60;99.90;;;;;;5036077;28;20013;-62
2021/08/21 06:06:36;;;;;;;19.33;9.65;;;16.70;99.90;;;;;;5029131;28;20116;-62
2021/08/21 06:09:03;;;;;;;19.08;8.85;;;16.80;99.90;;;;;;5032540;28;20384;-61
2021/08/21 06:11:30;;;;;;;14.68;8.23;;;16.90;99.90;;;;;;5005355;28;20034;-61
2021/08/21 06:13:55;;;;;;;16.20;8.38;;;16.90;99.90;;;;;;5023886;28;20362;-61
2021/08/21 06:16:21;;;;;;;18.33;8.32;;;16.90;99.90;;;;;;5032580;28;20040;-61
2021/08/21 06:18:47;;;;;;;17.17;8.38;;;17.00;99.90;;;;;;5034489;28;20103;-61
2021/08/21 06:21:13;;;;;;;17.88;9.10;;;17.10;99.90;;;;;;5030215;28;20362;-62
2021/08/21 06:23:38;;;;;;;17.58;9.73;;;17.10;99.90;;;;;;5034242;28;20087;-62
2021/08/21 06:26:04;;;;;;;18.00;8.35;;;17.10;99.90;;;;;;5036382;28;20026;-62
2021/08/21 06:28:29;;;;;;;15.68;7.70;;;17.30;99.90;;;;;;5010965;28;20029;-62
2021/08/21 06:30:55;;;;;;;18.05;8.02;;;17.70;99.90;;;;;;5036214;28;20040;-62
2021/08/21 06:33:21;;;;;;;14.85;8.00;;;17.70;99.90;;;;;;5028941;28;20029;-62
2021/08/21 06:35:47;;;;;;;17.55;8.23;;;17.60;99.90;;;;;;5030641;28;20468;-62
2021/08/21 06:38:12;;;;;;;15.30;8.40;;;17.70;99.90;;;;;;5034522;28;20511;-61
2021/08/21 06:40:38;;;;;;;15.88;7.47;;;17.80;99.90;;;;;;5047522;28;20069;-62
2021/08/21 06:43:04;;;;;;;14.05;7.22;;;17.90;99.90;;;;;;5049068;28;20090;-62
2021/08/21 06:45:29;;;;;;;14.23;7.25;;;18.10;99.90;;;;;;5049390;28;20032;-63
2021/08/21 06:47:55;;;;;;;15.55;7.22;;;18.00;99.90;;;;;;5048035;28;20021;-63
2021/08/21 06:50:22;;;;;;;15.73;6.95;;;18.40;99.90;;;;;;5048467;28;20094;-63
2021/08/21 06:52:49;;;;;;;14.80;7.25;;;18.30;99.90;;;;;;5048108;28;20033;-63
2021/08/21 06:55:15;;;;;;;16.58;7.20;;;18.30;99.90;;;;;;5052109;28;20107;-63
2021/08/21 06:57:41;;;;;;;15.05;7.30;;;18.50;99.90;;;;;;5050339;28;20056;-63
2021/08/21 07:00:07;;;;;;;16.50;7.75;;;18.60;99.90;;;;;;5051268;28;20067;-63
2021/08/21 07:02:33;;;;;;;14.13;7.80;;;18.80;99.90;;;;;;5049315;28;20369;-63
2021/08/21 07:04:59;;;;;;;13.85;7.28;;;19.20;99.90;;;;;;5046799;28;20033;-63
2021/08/21 07:07:24;;;;;;;14.02;6.55;;;19.20;99.90;;;;;;5045261;28;20037;-62
2021/08/21 07:09:50;;;;;;;12.65;5.80;;;19.50;99.90;;;;;;5047021;28;20487;-62
2021/08/21 07:12:16;;;;;;;14.10;7.07;;;19.70;99.90;;;;;;5031712;28;20036;-62
2021/08/21 07:14:41;;;;;;;12.82;7.03;;;19.70;99.90;;;;;;5057849;28;20039;-63
2021/08/21 07:17:08;;;;;;;14.85;7.22;;;20.00;99.90;;;;;;5046309;28;20039;-63
2021/08/21 07:19:34;;;;;;;12.88;6.97;;;20.10;99.90;;;;;;5053290;28;20029;-63
2021/08/21 07:22:00;;;;;;;15.65;7.43;;;20.20;99.90;;;;;;5046580;28;20056;-63
2021/08/21 07:24:25;;;;;;;15.90;7.38;;;20.10;99.90;;;;;;5028661;28;20076;-63
2021/08/21 07:26:51;;;;;;;14.15;6.72;;;20.20;99.90;;;;;;5045623;28;20036;-63
2021/08/21 07:29:17;;;;;;;14.43;7.00;;;20.60;99.90;;;;;;5047017;28;20075;-63
2021/08/21 07:31:43;;;;;;;12.52;6.15;;;21.00;99.90;;;;;;5046474;28;20131;-63
2021/08/21 07:34:08;;;;;;;13.60;6.65;;;21.10;99.90;;;;;;5046873;28;20086;-63
2021/08/21 07:36:34;;;;;;;12.57;6.15;;;21.10;99.90;;;;;;5048981;28;20036;-63
2021/08/21 07:38:59;;;;;;;12.60;6.40;;;21.10;99.90;;;;;;5058126;28;20091;-63
2021/08/21 07:41:25;;;;;;;13.02;6.53;;;21.10;99.90;;;;;;5026882;28;20087;-63
2021/08/21 07:43:51;;;;;;;14.38;7.32;;;21.10;99.90;;;;;;5025998;28;20129;-63
2021/08/21 07:46:16;;;;;;;16.02;7.28;;;21.30;99.90;;;;;;5048395;28;20035;-63
2021/08/21 07:48:42;;;;;;;14.82;6.15;;;21.20;99.90;;;;;;5045592;28;20040;-63
2021/08/21 07:51:07;;;;;;;12.88;6.57;;;21.40;99.90;;;;;;5026896;28;20029;-63
2021/08/21 07:53:33;;;;;;;15.10;7.65;;;21.30;99.90;;;;;;5046715;28;20068;-63
2021/08/21 07:55:59;;;;;;;15.00;7.60;;;21.40;99.90;;;;;;5046920;28;20036;-63
2021/08/21 07:58:25;;;;;;;16.52;7.28;;;21.60;99.90;;;;;;5041326;28;20658;-63
2021/08/21 08:00:50;;;;;;;15.57;7.70;;;21.80;99.90;;;;;;5045391;28;20075;-63
2021/08/21 08:03:16;;;;;;;13.43;7.45;;;21.80;99.90;;;;;;5046899;28;20032;-63
2021/08/21 08:05:43;;;;;;;16.63;7.78;;;21.80;99.90;;;;;;5045498;28;20032;-63
2021/08/21 08:08:09;;;;;;;14.73;7.40;;;21.90;99.90;;;;;;5036412;28;20033;-63
2021/08/21 08:10:34;;;;;;;14.45;8.23;;;22.00;99.90;;;;;;5040008;28;20033;-63
2021/08/21 08:13:00;;;;;;;13.73;6.70;;;22.10;99.90;;;;;;5044481;28;20086;-63
2021/08/21 08:15:26;;;;;;;15.90;7.60;;;22.20;99.90;;;;;;5047953;28;20025;-63
2021/08/21 08:17:51;;;;;;;14.30;7.50;;;22.40;99.90;;;;;;5044630;28;20037;-63
2021/08/21 08:20:17;;;;;;;15.90;7.18;;;22.40;99.90;;;;;;5044769;28;20033;-63
2021/08/21 08:22:43;;;;;;;13.85;6.65;;;22.60;99.90;;;;;;5045101;28;20387;-63
2021/08/21 08:25:09;;;;;;;14.27;7.03;;;22.80;99.90;;;;;;5044203;28;20021;-63
2021/08/21 08:27:35;;;;;;;13.15;6.32;;;23.10;99.90;;;;;;5052203;28;20021;-63
2021/08/21 08:30:02;;;;;;;13.32;6.90;;;23.20;99.90;;;;;;5044393;28;20124;-63
2021/08/21 08:32:27;;;;;;;13.30;6.40;;;23.30;99.90;;;;;;5044204;28;20028;-63
2021/08/21 08:34:53;;;;;;;13.25;7.03;;;23.40;99.90;;;;;;5046186;28;20039;-63
2021/08/21 08:37:18;;;;;;;13.43;6.70;;;23.50;99.90;;;;;;5045355;28;20028;-63
2021/08/21 08:39:44;;;;;;;13.23;6.75;;;23.50;99.90;;;;;;5043467;28;20212;-63
2021/08/21 08:42:10;;;;;;;16.17;7.03;;;23.70;99.90;;;;;;5041931;28;20037;-63
2021/08/21 08:44:43;;;;;;;14.55;6.18;;;23.90;99.90;;;;;;5025693;28;20078;-63
2021/08/21 08:47:09;;;;;;;13.77;6.72;;;24.30;99.90;;;;;;5043633;28;20024;-63
2021/08/21 08:49:37;;;;;;;16.33;7.28;;;24.50;99.90;;;;;;5044666;28;20489;-63
2021/08/21 08:52:05;;;;;;;13.70;6.38;;;25.10;99.90;;;;;;5044479;28;20033;-63
2021/08/21 08:54:30;;;;;;;12.75;6.80;;;25.60;99.90;;;;;;5048240;28;20039;-63
2021/08/21 08:56:56;;;;;;;13.43;6.07;;;25.50;99.90;;;;;;5042074;28;20036;-63
2021/08/21 08:59:22;;;;;;;14.20;7.43;;;25.60;99.90;;;;;;5046469;28;20052;-64
2021/08/21 09:01:48;;;;;;;11.57;6.00;;;25.70;99.90;;;;;;5045253;28;20101;-63
2021/08/21 09:04:17;;;;;;;12.30;6.20;;;25.90;99.90;;;;;;5043675;28;20082;-63
2021/08/21 09:06:43;;;;;;;;;;;26.10;99.90;;;;;;5043560;28;20017;-63
2021/08/21 09:09:10;;;;;;;12.50;5.60;;;25.70;99.90;;;;;;5042741;28;19969;-63
2021/08/21 09:11:42;;;;;;;11.35;5.45;;;25.80;99.90;;;;;;5042529;28;20123;-63
2021/08/21 09:14:29;;;;;;;11.77;5.53;;;26.40;99.90;;;;;;5039490;28;20029;-64
2021/08/21 09:17:15;;;;;;;11.45;5.90;;;26.80;99.90;;;;;;5037333;28;20029;-63
2021/08/21 09:19:40;;;;;;;12.95;5.68;;;26.70;99.80;;;;;;5037272;28;20120;-63
2021/08/21 09:22:07;;;;;;;10.05;4.75;;;26.90;99.90;;;;;;5043136;28;20476;-63
2021/08/21 09:24:36;;;;;;;10.85;4.75;;;27.10;99.90;;;;;;5043868;28;20071;-63
2021/08/21 09:27:25;;;;;;;10.27;4.47;;;27.80;98.80;;;;;;5046194;28;20431;-63
2021/08/21 09:30:26;;;;;;;12.07;4.70;;;27.80;98.10;;;;;;5046728;28;20469;-64
2021/08/21 09:33:02;;;;;;;10.30;4.40;;;26.80;99.00;;;;;;5018991;28;20465;-64
2021/08/21 09:35:33;;;;;;;9.98;3.83;;;26.10;99.80;;;;;;5045874;28;20025;-64
2021/08/21 09:37:59;;;;;;;11.32;4.72;;;26.90;99.90;;;;;;5047519;28;20036;-63
2021/08/21 09:40:35;;;;;;;12.35;4.78;;;27.10;97.50;;;;;;5044948;28;20818;-63
2021/08/21 09:43:04;;;;;;;10.93;4.82;;;27.20;97.50;;;;;;5029506;28;20064;-64
2021/08/21 09:45:35;;;;;;;9.45;4.32;;;27.10;96.90;;;;;;5045905;28;20021;-64
2021/08/21 09:48:04;;;;;;;9.35;4.60;;;27.10;97.10;;;;;;5047360;28;20534;-64
2021/08/21 09:50:38;;;;;;;9.20;4.13;;;27.50;96.30;;;;;;5045183;28;20072;-64
2021/08/21 09:53:07;;;;;;;8.50;4.00;;;27.60;95.80;;;;;;5044039;28;20098;-64
2021/08/21 09:55:33;;;;;;;9.57;3.72;;;27.30;96.00;;;;;;5040107;28;20059;-64
2021/08/21 09:58:02;;;;;;;11.63;3.88;;;28.40;97.40;;;;;;5041668;28;20025;-64
2021/08/21 10:00:29;;;;;;;8.60;3.90;;;28.70;96.10;;;;;;5046318;28;20396;-64
2021/08/21 10:02:56;;;;;;;11.13;4.60;;;27.20;97.40;;;;;;5052105;28;20029;-64
2021/08/21 10:05:23;;;;;;;9.25;3.97;;;27.20;96.80;;;;;;5045882;28;20488;-64
2021/08/21 10:07:54;;;;;;;8.07;3.50;;;26.90;98.70;;;;;;5049550;28;20425;-64
2021/08/21 10:10:23;;;;;;;6.88;2.80;;;27.60;95.80;;;;;;5029179;28;20033;-64
2021/08/21 10:12:53;;;;;;;5.25;2.05;;;28.60;94.10;;;;;;5046702;28;20136;-64
2021/08/21 10:15:21;;;;;;;7.13;2.60;;;29.30;93.20;;;;;;5029075;28;20477;-64
2021/08/21 10:17:47;;;;;;;6.85;2.53;;;29.20;93.40;;;;;;5046176;28;20029;-64
2021/08/21 10:20:13;;;;;;;6.85;2.40;;;29.40;91.20;;;;;;5045402;28;20511;-64
2021/08/21 10:22:40;;;;;;;10.32;2.90;;;29.40;91.50;;;;;;5028100;28;20033;-64
2021/08/21 10:25:08;;;;;;;6.40;2.40;;;30.10;90.80;;;;;;5045834;28;20013;-63
2021/08/21 10:27:37;;;;;;;6.82;2.30;;;30.20;90.20;;;;;;5045903;28;20432;-62
2021/08/21 10:30:09;;;;;;;5.60;2.55;;;30.20;90.00;;;;;;5046823;28;20379;-62
2021/08/21 10:32:43;;;;;;;6.85;2.63;;;30.60;89.90;;;;;;5046005;28;20087;-62
2021/08/21 10:35:11;;;;;;;5.70;2.50;;;30.40;90.80;;;;;;5045417;28;20032;-62
2021/08/21 10:37:45;;;;;;;4.93;1.98;;;30.90;88.80;;;;;;5049906;28;20200;-62
2021/08/21 10:40:26;;;;;;;5.55;2.10;;;31.00;88.60;;;;;;5049958;28;20061;-63
2021/08/21 10:42:53;;;;;;;6.22;2.35;;;30.20;88.90;;;;;;5045037;28;20037;-63
2021/08/21 10:45:43;;;;;;;6.22;2.35;;;29.60;91.20;;;;;;5045227;28;20021;-63
2021/08/21 10:48:33;;;;;;;5.18;2.03;;;29.10;90.60;;;;;;5044845;28;20028;-63
2021/08/21 10:50:58;;;;;;;;;;;28.10;91.40;;;;;;5045582;28;20029;-63
2021/08/21 10:53:29;;;;;;;6.25;2.33;;;27.50;93.90;;;;;;5032709;28;19909;-63
2021/08/21 10:55:57;;;;;;;5.95;2.40;;;27.50;92.70;;;;;;5051651;28;20111;-63
2021/08/21 10:58:25;;;;;;;4.00;1.60;;;27.20;94.20;;;;;;5048977;28;20388;-63
2021/08/21 11:01:00;;;;;;;6.35;2.60;;;27.50;93.80;;;;;;5044300;28;20078;-64
2021/08/21 11:03:29;;;;;;;5.85;1.90;;;27.30;93.00;;;;;;5022870;28;20021;-64
2021/08/21 11:06:00;;;;;;;5.55;2.45;;;27.40;93.20;;;;;;5046500;28;20460;-64
2021/08/21 11:08:28;;;;;;;8.77;2.25;;;27.80;93.50;;;;;;5045002;28;20487;-64
2021/08/21 11:11:15;;;;;;;4.35;1.48;;;27.90;93.70;;;;;;5052988;28;20032;-64
2021/08/21 11:14:11;;;;;;;4.80;1.80;;;28.10;92.60;;;;;;5048211;28;20366;-64
2021/08/21 11:16:46;;;;;;;7.05;1.70;;;28.40;90.80;;;;;;5045328;28;20076;-64
2021/08/21 11:19:13;;;;;;;4.28;1.60;;;29.20;91.30;;;;;;5046842;28;20037;-64
2021/08/21 11:21:39;;;;;;;5.18;2.17;;;29.70;87.30;;;;;;5044774;28;20020;-65
2021/08/21 11:24:27;;;;;;;5.45;2.13;;;29.40;90.20;;;;;;5047019;28;20494;-66
2021/08/21 11:27:22;;;;;;;6.38;2.22;;;28.80;91.00;;;;;;5039395;28;20052;-64
2021/08/21 11:30:10;;;;;;;4.85;1.88;;;27.90;91.30;;;;;;5046285;28;20032;-64
2021/08/21 11:32:59;;;;;;;5.70;2.10;;;28.20;91.10;;;;;;5048145;28;20048;-64
2021/08/21 11:35:27;;;;;;;4.90;1.80;;;28.60;90.40;;;;;;5051756;28;20021;-63
2021/08/21 11:37:58;;;;;;;6.07;2.20;;;28.60;91.60;;;;;;5052055;28;20029;-64
2021/08/21 11:40:32;;;;;;;4.88;1.95;;;28.50;91.30;;;;;;5048275;28;20044;-64
2021/08/21 11:43:00;;;;;;;6.38;2.55;;;28.60;91.70;;;;;;5045893;28;20116;-64
2021/08/21 11:45:28;;;;;;;7.60;2.67;;;28.10;91.70;;;;;;5045197;28;20861;-64
2021/08/21 11:47:55;;;;;;;9.82;2.40;;;28.60;91.90;;;;;;5044948;28;20048;-65
2021/08/21 11:50:36;;;;;;;7.57;2.38;;;28.60;91.50;;;;;;5046027;28;20381;-65
2021/08/21 11:53:04;;;;;;;8.85;2.35;;;29.20;92.40;;;;;;5046754;28;20369;-65
2021/08/21 11:55:31;;;;;;;6.90;2.50;;;29.80;90.30;;;;;;5045549;28;20025;-66
2021/08/21 11:57:57;;;;;;;5.97;2.13;;;30.90;88.40;;;;;;5045868;28;20025;-66
2021/08/21 12:00:26;;;;;;;6.13;2.42;;;31.10;88.10;;;;;;5018036;28;20041;-66
2021/08/21 12:02:56;;;;;;;5.65;2.05;;;30.80;90.00;;;;;;5036335;28;20032;-66
2021/08/21 12:05:40;;;;;;;5.15;2.08;;;30.80;86.50;;;;;;5044166;28;20021;-66
2021/08/21 12:08:20;;;;;;;5.68;2.15;;;31.10;88.90;;;;;;5044766;28;20028;-66
2021/08/21 12:10:58;;;;;;;5.57;2.17;;;30.90;87.70;;;;;;5044118;28;20024;-66
2021/08/21 12:13:25;;;;;;;6.22;2.75;;;30.20;89.30;;;;;;5045058;28;20722;-66
2021/08/21 12:15:52;;;;;;;6.95;2.60;;;29.40;90.60;;;;;;5027753;28;20024;-66
2021/08/21 12:18:21;;;;;;;5.78;2.10;;;30.10;88.00;;;;;;5044083;28;20028;-66
2021/08/21 12:20:47;;;;;;;6.00;2.50;;;30.90;87.20;;;;;;5044511;28;20121;-66
2021/08/21 12:23:14;;;;;;;5.35;2.10;;;30.50;87.80;;;;;;5044111;28;20037;-66
2021/08/21 12:25:51;;;;;;;5.82;2.60;;;30.80;87.20;;;;;;5043629;28;20021;-66
2021/08/21 12:28:19;;;;;;;6.88;2.50;;;30.40;86.50;;;;;;5043121;28;20104;-66
2021/08/21 12:31:03;;;;;;;8.98;2.33;;;30.20;88.80;;;;;;5041055;28;20512;-66
2021/08/21 12:33:34;;;;;;;6.55;2.40;;;29.80;90.40;;;;;;5041432;28;20091;-66
2021/08/21 12:36:19;;;;;;;6.50;2.47;;;30.30;88.40;;;;;;5043872;28;20025;-66
2021/08/21 12:39:11;;;;;;;7.95;2.38;;;31.50;87.20;;;;;;5021198;28;20034;-66
2021/08/21 12:41:53;;;;;;;5.80;2.47;;;31.90;86.70;;;;;;5023449;28;20049;-66
2021/08/21 12:44:22;;;;;;;5.60;2.17;;;31.60;85.70;;;;;;5025897;28;20033;-66
2021/08/21 12:46:48;;;;;;;;;;;31.40;86.20;;;;;;5023963;28;20021;-66